sensor_id;sensor_type;location;lat;lon;timestamp;pressure;altitude;pressure_sealevel;temperature;humidity
34197;BME280;36594;45.192;5.722;2023-04-01T00:02:03;98851.59;;;24.54;33.67
34197;BME280;36594;45.192;5.722;2023-04-01T00:04:51;98859.33;;;24.57;33.69
34197;BME280;36594;45.192;5.722;2023-04-01T00:07:40;98864.54;;;24.59;33.69
34197;BME280;36594;45.192;5.722;2023-04-01T00:10:29;98865.94;;;24.61;33.67
34197;BME280;36594;45.192;5.722;2023-04-01T00:13:18;98875.55;;;24.61;33.65
34197;BME280;36594;45.192;5.722;2023-04-01T00:16:07;98879.11;;;24.59;33.68
34197;BME280;36594;45.192;5.722;2023-04-01T00:18:56;98869.50;;;24.59;33.70
34197;BME280;36594;45.192;5.722;2023-04-01T00:21:44;98867.55;;;24.60;33.69
34197;BME280;36594;45.192;5.722;2023-04-01T00:24:34;98869.76;;;24.60;33.68
34197;BME280;36594;45.192;5.722;2023-04-01T00:27:22;98870.59;;;24.61;33.72
34197;BME280;36594;45.192;5.722;2023-04-01T00:30:11;98873.06;;;24.62;33.69
34197;BME280;36594;45.192;5.722;2023-04-01T00:32:59;98875.25;;;24.60;33.73
34197;BME280;36594;45.192;5.722;2023-04-01T00:35:48;98876.92;;;24.61;33.70
34197;BME280;36594;45.192;5.722;2023-04-01T00:38:37;98872.50;;;24.60;33.74
34197;BME280;36594;45.192;5.722;2023-04-01T00:41:26;98874.73;;;24.63;33.72
34197;BME280;36594;45.192;5.722;2023-04-01T00:44:18;98873.63;;;24.64;33.70
34197;BME280;36594;45.192;5.722;2023-04-01T00:47:06;98880.23;;;24.63;33.75
34197;BME280;36594;45.192;5.722;2023-04-01T00:49:55;98875.00;;;24.64;33.74
34197;BME280;36594;45.192;5.722;2023-04-01T00:52:43;98862.94;;;24.65;33.73
34197;BME280;36594;45.192;5.722;2023-04-01T00:55:35;98863.80;;;24.68;33.68
34197;BME280;36594;45.192;5.722;2023-04-01T00:58:25;98861.86;;;24.66;33.72
34197;BME280;36594;45.192;5.722;2023-04-01T01:01:15;98864.87;;;24.67;33.68
34197;BME280;36594;45.192;5.722;2023-04-01T01:04:04;98861.61;;;24.70;33.69
34197;BME280;36594;45.192;5.722;2023-04-01T01:06:59;98853.91;;;24.70;33.70
34197;BME280;36594;45.192;5.722;2023-04-01T01:13:16;98860.80;;;24.72;33.68
34197;BME280;36594;45.192;5.722;2023-04-01T01:16:10;98862.98;;;24.70;33.72
34197;BME280;36594;45.192;5.722;2023-04-01T01:19:09;98859.70;;;24.71;33.72
34197;BME280;36594;45.192;5.722;2023-04-01T01:25:40;98864.62;;;24.71;33.71
34197;BME280;36594;45.192;5.722;2023-04-01T01:34:40;98851.45;;;24.71;33.77
34197;BME280;36594;45.192;5.722;2023-04-01T01:37:30;98847.06;;;24.72;33.75
34197;BME280;36594;45.192;5.722;2023-04-01T01:40:20;98848.44;;;24.72;33.74
34197;BME280;36594;45.192;5.722;2023-04-01T01:43:12;98857.53;;;24.76;33.72
34197;BME280;36594;45.192;5.722;2023-04-01T01:46:05;98842.73;;;24.79;33.67
34197;BME280;36594;45.192;5.722;2023-04-01T01:48:53;98847.13;;;24.78;33.71
34197;BME280;36594;45.192;5.722;2023-04-01T01:51:43;98843.87;;;24.81;33.68
34197;BME280;36594;45.192;5.722;2023-04-01T01:54:32;98832.05;;;24.80;33.66
34197;BME280;36594;45.192;5.722;2023-04-01T01:57:31;98838.63;;;24.82;33.65
34197;BME280;36594;45.192;5.722;2023-04-01T02:00:22;98838.93;;;24.83;33.64
34197;BME280;36594;45.192;5.722;2023-04-01T02:03:12;98841.94;;;24.84;33.64
34197;BME280;36594;45.192;5.722;2023-04-01T02:06:04;98845.52;;;24.84;33.62
34197;BME280;36594;45.192;5.722;2023-04-01T02:08:55;98837.58;;;24.85;33.65
34197;BME280;36594;45.192;5.722;2023-04-01T02:11:47;98835.39;;;24.87;33.61
34197;BME280;36594;45.192;5.722;2023-04-01T02:14:57;98839.52;;;24.90;33.60
34197;BME280;36594;45.192;5.722;2023-04-01T02:17:38;98838.95;;;24.90;33.59
34197;BME280;36594;45.192;5.722;2023-04-01T02:20:29;98838.95;;;24.90;33.59
34197;BME280;36594;45.192;5.722;2023-04-01T02:23:18;98839.78;;;24.91;33.57
34197;BME280;36594;45.192;5.722;2023-04-01T02:26:08;98845.86;;;24.95;33.56
34197;BME280;36594;45.192;5.722;2023-04-01T02:29:00;98850.28;;;24.96;33.52
34197;BME280;36594;45.192;5.722;2023-04-01T02:31:50;98843.67;;;24.97;33.51
34197;BME280;36594;45.192;5.722;2023-04-01T02:34:40;98838.45;;;24.96;33.52
34197;BME280;36594;45.192;5.722;2023-04-01T02:37:29;98838.19;;;25.00;33.51
34197;BME280;36594;45.192;5.722;2023-04-01T02:40:17;98833.52;;;24.98;33.47
34197;BME280;36594;45.192;5.722;2023-04-01T02:43:06;98823.66;;;25.02;33.47
34197;BME280;36594;45.192;5.722;2023-04-01T02:45:54;98817.35;;;25.04;33.47
34197;BME280;36594;45.192;5.722;2023-04-01T02:48:43;98823.11;;;25.05;33.42
34197;BME280;36594;45.192;5.722;2023-04-01T02:51:32;98833.58;;;25.08;33.36
34197;BME280;36594;45.192;5.722;2023-04-01T02:54:21;98832.76;;;25.10;33.36
34197;BME280;36594;45.192;5.722;2023-04-01T02:57:09;98832.76;;;25.10;33.34
34197;BME280;36594;45.192;5.722;2023-04-01T02:59:58;98817.59;;;25.02;33.38
34197;BME280;36594;45.192;5.722;2023-04-01T03:02:46;98828.94;;;25.11;33.35
34197;BME280;36594;45.192;5.722;2023-04-01T03:05:35;98826.45;;;25.12;33.36
34197;BME280;36594;45.192;5.722;2023-04-01T03:08:24;98830.88;;;25.15;33.33
34197;BME280;36594;45.192;5.722;2023-04-01T03:11:13;98835.54;;;25.15;33.34
34197;BME280;36594;45.192;5.722;2023-04-01T03:14:02;98829.20;;;25.14;33.48
34197;BME280;36594;45.192;5.722;2023-04-01T03:16:50;98832.79;;;25.15;33.59
34197;BME280;36594;45.192;5.722;2023-04-01T03:19:38;98827.58;;;25.13;33.56
34197;BME280;36594;45.192;5.722;2023-04-01T03:22:27;98826.77;;;25.18;33.65
34197;BME280;36594;45.192;5.722;2023-04-01T03:25:15;98826.77;;;25.18;33.65
34197;BME280;36594;45.192;5.722;2023-04-01T03:28:04;98817.13;;;25.15;33.81
34197;BME280;36594;45.192;5.722;2023-04-01T03:30:52;98806.40;;;25.16;33.81
34197;BME280;36594;45.192;5.722;2023-04-01T03:33:41;98802.30;;;25.19;33.79
34197;BME280;36594;45.192;5.722;2023-04-01T03:36:30;98803.41;;;25.18;33.80
34197;BME280;36594;45.192;5.722;2023-04-01T03:39:18;98801.21;;;25.20;33.78
34197;BME280;36594;45.192;5.722;2023-04-01T03:42:06;98804.78;;;25.18;33.79
34197;BME280;36594;45.192;5.722;2023-04-01T03:44:55;98805.59;;;25.21;33.78
34197;BME280;36594;45.192;5.722;2023-04-01T03:47:44;98791.31;;;25.21;33.77
34197;BME280;36594;45.192;5.722;2023-04-01T03:50:34;98793.78;;;25.23;33.74
34197;BME280;36594;45.192;5.722;2023-04-01T03:53:23;98790.49;;;25.23;33.72
34197;BME280;36594;45.192;5.722;2023-04-01T03:56:12;98790.80;;;25.27;33.67
34197;BME280;36594;45.192;5.722;2023-04-01T03:59:05;98777.59;;;25.26;33.69
34197;BME280;36594;45.192;5.722;2023-04-01T04:01:54;98776.22;;;25.26;33.71
34197;BME280;36594;45.192;5.722;2023-04-01T04:04:43;98782.55;;;25.27;33.73
34197;BME280;36594;45.192;5.722;2023-04-01T04:07:35;98781.44;;;25.28;33.68
34197;BME280;36594;45.192;5.722;2023-04-01T04:10:24;98782.27;;;25.28;33.74
34197;BME280;36594;45.192;5.722;2023-04-01T04:13:13;98791.89;;;25.28;33.73
34197;BME280;36594;45.192;5.722;2023-04-01T04:16:04;98785.03;;;25.31;33.69
34197;BME280;36594;45.192;5.722;2023-04-01T04:18:55;98782.58;;;25.32;33.64
34197;BME280;36594;45.192;5.722;2023-04-01T04:21:43;98790.82;;;25.32;33.71
34197;BME280;36594;45.192;5.722;2023-04-01T04:24:33;98789.69;;;25.30;33.69
34197;BME280;36594;45.192;5.722;2023-04-01T04:27:23;98793.57;;;25.32;33.72
34197;BME280;36594;45.192;5.722;2023-04-01T04:30:16;98799.06;;;25.32;33.69
34197;BME280;36594;45.192;5.722;2023-04-01T04:33:05;98800.44;;;25.32;33.70
34197;BME280;36594;45.192;5.722;2023-04-01T04:35:56;98802.62;;;25.32;33.71
34197;BME280;36594;45.192;5.722;2023-04-01T04:38:45;98799.88;;;25.35;33.69
34197;BME280;36594;45.192;5.722;2023-04-01T04:41:42;98785.59;;;25.35;33.67
34197;BME280;36594;45.192;5.722;2023-04-01T04:44:26;98787.51;;;25.35;33.72
34197;BME280;36594;45.192;5.722;2023-04-01T04:47:14;98790.26;;;25.35;33.63
34197;BME280;36594;45.192;5.722;2023-04-01T04:50:05;98792.19;;;25.37;33.66
34197;BME280;36594;45.192;5.722;2023-04-01T04:52:53;98804.85;;;25.38;33.68
34197;BME280;36594;45.192;5.722;2023-04-01T04:55:49;98813.10;;;25.38;33.65
34197;BME280;36594;45.192;5.722;2023-04-01T04:58:40;98810.35;;;25.38;33.67
34197;BME280;36594;45.192;5.722;2023-04-01T05:01:29;98802.94;;;25.38;33.68
34197;BME280;36594;45.192;5.722;2023-04-01T05:04:18;98806.52;;;25.39;33.70
34197;BME280;36594;45.192;5.722;2023-04-01T05:07:06;98794.95;;;25.39;33.66
34197;BME280;36594;45.192;5.722;2023-04-01T05:09:55;98792.77;;;25.39;33.67
34197;BME280;36594;45.192;5.722;2023-04-01T05:12:44;98787.81;;;25.38;33.68
34197;BME280;36594;45.192;5.722;2023-04-01T05:15:34;98790.05;;;25.44;33.64
34197;BME280;36594;45.192;5.722;2023-04-01T05:18:22;98784.55;;;25.44;33.61
34197;BME280;36594;45.192;5.722;2023-04-01T05:21:13;98788.09;;;25.42;33.63
34197;BME280;36594;45.192;5.722;2023-04-01T05:24:03;98786.71;;;25.42;33.64
34197;BME280;36594;45.192;5.722;2023-04-01T05:26:52;98790.58;;;25.41;33.64
34197;BME280;36594;45.192;5.722;2023-04-01T05:29:40;98791.67;;;25.43;33.65
34197;BME280;36594;45.192;5.722;2023-04-01T05:32:31;98793.37;;;25.44;33.62
34197;BME280;36594;45.192;5.722;2023-04-01T05:35:20;98800.75;;;25.43;33.63
34197;BME280;36594;45.192;5.722;2023-04-01T05:38:09;98800.75;;;25.43;33.62
34197;BME280;36594;45.192;5.722;2023-04-01T05:41:02;98804.33;;;25.41;33.64
34197;BME280;36594;45.192;5.722;2023-04-01T05:43:51;98796.11;;;25.44;33.61
34197;BME280;36594;45.192;5.722;2023-04-01T05:46:50;98803.20;;;25.42;33.65
34197;BME280;36594;45.192;5.722;2023-04-01T05:49:39;98805.42;;;25.43;33.65
34197;BME280;36594;45.192;5.722;2023-04-01T05:52:28;98817.54;;;25.44;33.64
34197;BME280;36594;45.192;5.722;2023-04-01T05:55:17;98825.50;;;25.43;33.62
34197;BME280;36594;45.192;5.722;2023-04-01T05:58:06;98830.20;;;25.45;33.59
34197;BME280;36594;45.192;5.722;2023-04-01T06:01:02;98823.88;;;25.45;33.63
34197;BME280;36594;45.192;5.722;2023-04-01T06:03:46;98825.00;;;25.46;33.58
34197;BME280;36594;45.192;5.722;2023-04-01T06:06:35;98830.48;;;25.44;33.62
34197;BME280;36594;45.192;5.722;2023-04-01T06:09:27;98840.92;;;25.47;33.62
34197;BME280;36594;45.192;5.722;2023-04-01T06:15:33;98833.52;;;25.47;33.67
34197;BME280;36594;45.192;5.722;2023-04-01T06:37:56;98865.36;;;25.40;33.92
34197;BME280;36594;45.192;5.722;2023-04-01T06:56:28;98873.62;;;25.43;33.90
34197;BME280;36594;45.192;5.722;2023-04-01T06:59:27;98867.56;;;25.41;33.92
34197;BME280;36594;45.192;5.722;2023-04-01T07:02:23;98870.91;;;25.46;33.93
34197;BME280;36594;45.192;5.722;2023-04-01T07:05:11;98878.88;;;25.47;33.61
34197;BME280;36594;45.192;5.722;2023-04-01T07:08:04;98882.48;;;25.50;33.30
34197;BME280;36594;45.192;5.722;2023-04-01T07:14:00;98884.11;;;25.49;32.96
34197;BME280;36594;45.192;5.722;2023-04-01T07:16:54;98884.66;;;25.46;32.74
34197;BME280;36594;45.192;5.722;2023-04-01T07:19:45;98893.45;;;25.45;32.78
34197;BME280;36594;45.192;5.722;2023-04-01T07:22:47;98886.86;;;25.44;32.88
34197;BME280;36594;45.192;5.722;2023-04-01T07:25:51;98885.48;;;25.44;33.02
34197;BME280;36594;45.192;5.722;2023-04-01T07:28:39;98885.44;;;25.41;33.15
34197;BME280;36594;45.192;5.722;2023-04-01T07:35:23;98880.48;;;25.40;33.28
34197;BME280;36594;45.192;5.722;2023-04-01T07:37:39;98887.91;;;25.43;33.29
34197;BME280;36594;45.192;5.722;2023-04-01T07:43:59;98882.39;;;25.40;33.36
34197;BME280;36594;45.192;5.722;2023-04-01T07:47:07;98879.94;;;25.41;33.44
34197;BME280;36594;45.192;5.722;2023-04-01T07:50:03;98881.85;;;25.40;33.47
34197;BME280;36594;45.192;5.722;2023-04-01T07:53:09;98867.52;;;25.33;33.45
34197;BME280;36594;45.192;5.722;2023-04-01T08:05:32;98873.91;;;25.44;33.98
34197;BME280;36594;45.192;5.722;2023-04-01T08:15:21;98896.70;;;25.42;34.81
34197;BME280;36594;45.192;5.722;2023-04-01T08:21:55;98909.35;;;25.40;35.25
34197;BME280;36594;45.192;5.722;2023-04-01T08:24:45;98919.25;;;25.39;35.37
34197;BME280;36594;45.192;5.722;2023-04-01T08:27:48;98921.72;;;25.40;35.50
34197;BME280;36594;45.192;5.722;2023-04-01T08:30:42;98924.73;;;25.41;35.58
34197;BME280;36594;45.192;5.722;2023-04-01T08:33:32;98932.73;;;25.43;35.63
34197;BME280;36594;45.192;5.722;2023-04-01T08:36:36;98925.36;;;25.44;35.63
34197;BME280;36594;45.192;5.722;2023-04-01T08:39:39;98925.08;;;25.45;35.67
34197;BME280;36594;45.192;5.722;2023-04-01T08:45:44;98919.88;;;25.46;35.69
34197;BME280;36594;45.192;5.722;2023-04-01T08:58:46;98911.53;;;25.36;35.75
34197;BME280;36594;45.192;5.722;2023-04-01T09:05:38;98904.67;;;25.38;35.87
34197;BME280;36594;45.192;5.722;2023-04-01T09:08:09;98893.94;;;25.39;35.84
34197;BME280;36594;45.192;5.722;2023-04-01T09:11:08;98893.11;;;25.41;35.88
34197;BME280;36594;45.192;5.722;2023-04-01T09:14:34;98896.70;;;25.42;35.88
34197;BME280;36594;45.192;5.722;2023-04-01T09:23:56;98890.12;;;25.43;35.90
34197;BME280;36594;45.192;5.722;2023-04-01T09:27:08;98892.03;;;25.43;35.96
34197;BME280;36594;45.192;5.722;2023-04-01T09:30:11;98885.20;;;25.45;35.88
34197;BME280;36594;45.192;5.722;2023-04-01T09:45:44;98871.74;;;25.51;36.29
34197;BME280;36594;45.192;5.722;2023-04-01T09:51:50;98870.13;;;25.55;36.32
34197;BME280;36594;45.192;5.722;2023-04-01T10:10:36;98859.37;;;25.51;36.40
34197;BME280;36594;45.192;5.722;2023-04-01T10:13:35;98854.14;;;25.50;36.42
34197;BME280;36594;45.192;5.722;2023-04-01T10:23:07;98843.44;;;25.51;36.39
34197;BME280;36594;45.192;5.722;2023-04-01T10:32:57;98827.18;;;25.47;36.45
34197;BME280;36594;45.192;5.722;2023-04-01T10:36:14;98826.93;;;25.48;36.42
34197;BME280;36594;45.192;5.722;2023-04-01T10:39:11;98828.30;;;25.48;36.45
34197;BME280;36594;45.192;5.722;2023-04-01T10:48:48;98827.19;;;25.49;36.45
34197;BME280;36594;45.192;5.722;2023-04-01T10:58:17;98815.66;;;25.52;36.62
34197;BME280;36594;45.192;5.722;2023-04-01T11:08:12;98794.23;;;25.59;37.08
34197;BME280;36594;45.192;5.722;2023-04-01T11:11:23;98797.80;;;25.57;36.98
34197;BME280;36594;45.192;5.722;2023-04-01T11:17:52;98791.48;;;25.62;37.47
34197;BME280;36594;45.192;5.722;2023-04-01T11:24:13;98800.00;;;25.65;37.33
34197;BME280;36594;45.192;5.722;2023-04-01T11:27:17;98793.95;;;25.63;37.46
34197;BME280;36594;45.192;5.722;2023-04-01T11:33:22;98799.47;;;25.68;37.47
34197;BME280;36594;45.192;5.722;2023-04-01T11:36:28;98797.81;;;25.70;37.52
34197;BME280;36594;45.192;5.722;2023-04-01T11:43:37;98793.44;;;25.71;37.53
34197;BME280;36594;45.192;5.722;2023-04-01T11:52:31;98783.52;;;25.70;37.73
34197;BME280;36594;45.192;5.722;2023-04-01T12:02:03;98766.49;;;25.78;37.99
34197;BME280;36594;45.192;5.722;2023-04-01T12:11:22;98742.83;;;25.82;37.75
34197;BME280;36594;45.192;5.722;2023-04-01T12:27:14;98706.52;;;25.90;37.58
34197;BME280;36594;45.192;5.722;2023-04-01T12:30:13;98700.45;;;25.91;37.45
34197;BME280;36594;45.192;5.722;2023-04-01T12:40:30;98689.73;;;25.92;37.67
34197;BME280;36594;45.192;5.722;2023-04-01T12:45:28;98675.68;;;25.88;37.80
34197;BME280;36594;45.192;5.722;2023-04-01T12:51:50;98671.30;;;25.92;37.60
34197;BME280;36594;45.192;5.722;2023-04-01T12:54:48;98665.25;;;25.90;37.65
34197;BME280;36594;45.192;5.722;2023-04-01T13:07:22;98634.41;;;25.91;37.68
34197;BME280;36594;45.192;5.722;2023-04-01T13:16:38;98616.27;;;25.92;37.58
34197;BME280;36594;45.192;5.722;2023-04-01T13:19:58;98604.68;;;25.93;37.73
34197;BME280;36594;45.192;5.722;2023-04-01T13:38:46;98556.52;;;25.95;37.61
34197;BME280;36594;45.192;5.722;2023-04-01T13:45:00;98551.30;;;25.94;37.63
34197;BME280;36594;45.192;5.722;2023-04-01T13:54:24;98537.00;;;25.94;37.69
34197;BME280;36594;45.192;5.722;2023-04-01T13:57:42;98537.84;;;25.95;37.75
34197;BME280;36594;45.192;5.722;2023-04-01T14:09:50;98540.84;;;25.96;37.85
34197;BME280;36594;45.192;5.722;2023-04-01T14:12:43;98536.45;;;25.97;37.80
34197;BME280;36594;45.192;5.722;2023-04-01T14:15:47;98541.12;;;25.94;37.84
34197;BME280;36594;45.192;5.722;2023-04-01T14:18:41;98533.96;;;25.96;37.83
34197;BME280;36594;45.192;5.722;2023-04-01T14:30:58;98539.20;;;25.97;37.81
34197;BME280;36594;45.192;5.722;2023-04-01T14:33:58;98531.50;;;25.94;37.81
34197;BME280;36594;45.192;5.722;2023-04-01T14:49:04;98551.02;;;25.95;37.67
34197;BME280;36594;45.192;5.722;2023-04-01T14:51:54;98551.85;;;25.93;37.68
34197;BME280;36594;45.192;5.722;2023-04-01T14:54:44;98560.11;;;25.93;37.58
34197;BME280;36594;45.192;5.722;2023-04-01T14:57:34;98559.84;;;25.95;37.57
34197;BME280;36594;45.192;5.722;2023-04-01T15:00:23;98568.66;;;25.92;37.58
34197;BME280;36594;45.192;5.722;2023-04-01T15:03:21;98565.36;;;25.92;37.58
34197;BME280;36594;45.192;5.722;2023-04-01T15:09:24;98585.41;;;26.00;37.57
34197;BME280;36594;45.192;5.722;2023-04-01T15:12:51;98573.31;;;26.01;37.58
34197;BME280;36594;45.192;5.722;2023-04-01T15:25:45;98598.08;;;26.04;37.78
34197;BME280;36594;45.192;5.722;2023-04-01T15:28:38;98590.62;;;26.04;37.68
34197;BME280;36594;45.192;5.722;2023-04-01T15:34:36;98590.91;;;26.00;37.68
34197;BME280;36594;45.192;5.722;2023-04-01T15:40:32;98573.04;;;26.11;37.59
34197;BME280;36594;45.192;5.722;2023-04-01T15:43:45;98577.17;;;26.11;37.62
34197;BME280;36594;45.192;5.722;2023-04-01T15:46:50;98600.56;;;26.11;37.42
34197;BME280;36594;45.192;5.722;2023-04-01T15:49:49;98596.95;;;26.05;37.37
34197;BME280;36594;45.192;5.722;2023-04-01T15:58:42;98577.98;;;25.98;37.44
34197;BME280;36594;45.192;5.722;2023-04-01T16:01:43;98573.86;;;25.98;37.55
34197;BME280;36594;45.192;5.722;2023-04-01T16:17:00;98597.83;;;25.90;37.65
34197;BME280;36594;45.192;5.722;2023-04-01T16:23:04;98625.89;;;25.87;37.69
34197;BME280;36594;45.192;5.722;2023-04-01T16:26:06;98629.48;;;25.85;37.66
34197;BME280;36594;45.192;5.722;2023-04-01T16:32:21;98642.11;;;25.84;37.71
34197;BME280;36594;45.192;5.722;2023-04-01T16:44:20;98619.84;;;25.83;37.73
34197;BME280;36594;45.192;5.722;2023-04-01T16:47:11;98619.02;;;25.82;37.63
34197;BME280;36594;45.192;5.722;2023-04-01T16:50:06;98625.89;;;25.80;37.70
34197;BME280;36594;45.192;5.722;2023-04-01T16:53:08;98630.02;;;25.80;37.75
34197;BME280;36594;45.192;5.722;2023-04-01T17:05:14;98633.60;;;25.80;37.61
34197;BME280;36594;45.192;5.722;2023-04-01T17:11:19;98622.31;;;25.79;37.81
34197;BME280;36594;45.192;5.722;2023-04-01T17:17:29;98620.39;;;25.80;37.69
34197;BME280;36594;45.192;5.722;2023-04-01T17:23:36;98627.81;;;25.74;37.73
34197;BME280;36594;45.192;5.722;2023-04-01T17:26:45;98628.64;;;25.72;37.75
34197;BME280;36594;45.192;5.722;2023-04-01T17:29:56;98614.63;;;25.71;37.72
34197;BME280;36594;45.192;5.722;2023-04-01T17:35:58;98615.72;;;25.68;37.66
34197;BME280;36594;45.192;5.722;2023-04-01T17:38:56;98618.22;;;25.67;37.62
34197;BME280;36594;45.192;5.722;2023-04-01T17:54:32;98650.67;;;25.60;37.56
34197;BME280;36594;45.192;5.722;2023-04-01T18:01:04;98650.66;;;25.57;37.46
34197;BME280;36594;45.192;5.722;2023-04-01T18:05:00;98663.88;;;25.58;37.51
34197;BME280;36594;45.192;5.722;2023-04-01T18:22:53;98691.38;;;25.55;37.27
34197;BME280;36594;45.192;5.722;2023-04-01T18:25:44;98701.82;;;25.53;37.28
34197;BME280;36594;45.192;5.722;2023-04-01T18:28:53;98697.69;;;25.51;37.26
34197;BME280;36594;45.192;5.722;2023-04-01T18:31:34;98701.53;;;25.52;37.23
34197;BME280;36594;45.192;5.722;2023-04-01T18:38:12;98706.73;;;25.51;37.16
34197;BME280;36594;45.192;5.722;2023-04-01T18:41:19;98707.02;;;25.47;37.17
34197;BME280;36594;45.192;5.722;2023-04-01T18:44:22;98705.38;;;25.46;37.12
34197;BME280;36594;45.192;5.722;2023-04-01T18:50:36;98701.52;;;25.45;37.08
34197;BME280;36594;45.192;5.722;2023-04-01T18:56:25;98705.59;;;25.42;37.13
34197;BME280;36594;45.192;5.722;2023-04-01T18:59:40;98706.43;;;25.43;37.08
34197;BME280;36594;45.192;5.722;2023-04-01T19:02:36;98712.77;;;25.43;37.03
34197;BME280;36594;45.192;5.722;2023-04-01T19:05:33;98702.83;;;25.34;37.04
34197;BME280;36594;45.192;5.722;2023-04-01T19:08:32;98712.77;;;25.43;36.99
34197;BME280;36594;45.192;5.722;2023-04-01T19:11:35;98717.97;;;25.42;36.96
34197;BME280;36594;45.192;5.722;2023-04-01T19:20:33;98725.95;;;25.41;36.89
34197;BME280;36594;45.192;5.722;2023-04-01T19:23:30;98727.05;;;25.40;36.82
34197;BME280;36594;45.192;5.722;2023-04-01T19:26:33;98729.24;;;25.38;36.84
34197;BME280;36594;45.192;5.722;2023-04-01T19:29:31;98738.33;;;25.38;36.85
34197;BME280;36594;45.192;5.722;2023-04-01T19:35:33;98747.41;;;25.39;36.76
34197;BME280;36594;45.192;5.722;2023-04-01T19:38:39;98741.32;;;25.37;36.76
34197;BME280;36594;45.192;5.722;2023-04-01T19:41:39;98740.52;;;25.34;36.75
34197;BME280;36594;45.192;5.722;2023-04-01T19:44:55;98744.36;;;25.35;36.76
34197;BME280;36594;45.192;5.722;2023-04-01T19:50:57;98745.45;;;25.32;36.70
34197;BME280;36594;45.192;5.722;2023-04-01T19:53:56;98746.25;;;25.30;36.78
34197;BME280;36594;45.192;5.722;2023-04-01T19:56:50;98747.08;;;25.30;36.71
34197;BME280;36594;45.192;5.722;2023-04-01T19:59:41;98750.95;;;25.32;36.71
34197;BME280;36594;45.192;5.722;2023-04-01T20:11:39;98743.50;;;25.30;36.64
34197;BME280;36594;45.192;5.722;2023-04-01T20:17:42;98743.52;;;25.27;36.49
34197;BME280;36594;45.192;5.722;2023-04-01T20:20:32;98751.47;;;25.24;36.54
34197;BME280;36594;45.192;5.722;2023-04-01T20:23:30;98745.45;;;25.29;36.58
34197;BME280;36594;45.192;5.722;2023-04-01T20:26:19;98750.66;;;25.28;36.76
34197;BME280;36594;45.192;5.722;2023-04-01T20:35:56;98742.14;;;25.32;36.96
34197;BME280;36594;45.192;5.722;2023-04-01T20:39:04;98740.50;;;25.31;36.91
34197;BME280;36594;45.192;5.722;2023-04-01T20:45:04;98733.34;;;25.30;37.05
34197;BME280;36594;45.192;5.722;2023-04-01T20:51:06;98741.33;;;25.29;37.13
34197;BME280;36594;45.192;5.722;2023-04-01T20:54:10;98743.80;;;25.31;37.15
34197;BME280;36594;45.192;5.722;2023-04-01T20:57:06;98738.00;;;25.30;37.16
34197;BME280;36594;45.192;5.722;2023-04-01T21:00:03;98735.25;;;25.30;37.22
34197;BME280;36594;45.192;5.722;2023-04-01T21:15:21;98733.34;;;25.30;37.24
34197;BME280;36594;45.192;5.722;2023-04-01T21:18:13;98728.39;;;25.32;37.24
34197;BME280;36594;45.192;5.722;2023-04-01T21:52:27;98731.43;;;25.33;37.34
34197;BME280;36594;45.192;5.722;2023-04-01T22:01:43;98731.16;;;25.37;37.28
34197;BME280;36594;45.192;5.722;2023-04-01T22:07:56;98722.92;;;25.40;37.07
34197;BME280;36594;45.192;5.722;2023-04-01T22:10:47;98718.80;;;25.40;37.06
34197;BME280;36594;45.192;5.722;2023-04-01T22:13:46;98713.30;;;25.40;37.01
34197;BME280;36594;45.192;5.722;2023-04-01T22:16:56;98714.14;;;25.43;36.90
34197;BME280;36594;45.192;5.722;2023-04-01T22:26:24;98707.84;;;25.45;36.84
34197;BME280;36594;45.192;5.722;2023-04-01T22:29:20;98715.80;;;25.44;36.85
34197;BME280;36594;45.192;5.722;2023-04-01T22:32:14;98709.72;;;25.42;36.82
34197;BME280;36594;45.192;5.722;2023-04-01T22:50:24;98719.39;;;25.47;36.67
34197;BME280;36594;45.192;5.722;2023-04-01T22:56:57;98723.26;;;25.46;36.66
34197;BME280;36594;45.192;5.722;2023-04-01T22:59:47;98722.69;;;25.47;36.66
34197;BME280;36594;45.192;5.722;2023-04-01T23:03:28;98713.63;;;25.46;36.64
34197;BME280;36594;45.192;5.722;2023-04-01T23:05:40;98725.19;;;25.48;36.58
34197;BME280;36594;45.192;5.722;2023-04-01T23:12:03;98723.81;;;25.48;36.61
34197;BME280;36594;45.192;5.722;2023-04-01T23:14:57;98729.31;;;25.48;36.56
34197;BME280;36594;45.192;5.722;2023-04-01T23:21:22;98727.09;;;25.48;36.59
34197;BME280;36594;45.192;5.722;2023-04-01T23:24:32;98733.44;;;25.48;36.58
34197;BME280;36594;45.192;5.722;2023-04-01T23:33:30;98734.23;;;25.49;36.57
34197;BME280;36594;45.192;5.722;2023-04-01T23:36:19;98737.80;;;25.47;36.58
34197;BME280;36594;45.192;5.722;2023-04-01T23:39:30;98740.30;;;25.48;36.57
34197;BME280;36594;45.192;5.722;2023-04-01T23:42:07;98741.41;;;25.52;36.49
34197;BME280;36594;45.192;5.722;2023-04-01T23:45:02;98745.24;;;25.51;36.50
34197;BME280;36594;45.192;5.722;2023-04-01T23:47:51;98736.73;;;25.53;36.50
34197;BME280;36594;45.192;5.722;2023-04-01T23:50:39;98737.00;;;25.54;36.48
34197;BME280;36594;45.192;5.722;2023-04-01T23:53:32;98745.25;;;25.54;36.44
34197;BME280;36594;45.192;5.722;2023-04-01T23:56:20;98743.07;;;25.53;36.48
34197;BME280;36594;45.192;5.722;2023-04-01T23:59:17;98739.22;;;25.57;36.48
